Time;durP1;ratioP1;P1;durP2;ratioP2;P2;SDS_P1;SDS_P2;PMS_P1;PMS_P2;Temp;Humidity;BMP_temperature;BMP_pressure;BME280_temperature;BME280_humidity;BME280_pressure;Samples;Min_cycle;Max_cycle;Signal;HPM_P1;HPM_P2
2023/01/06 00:00:37;;;;;;;7.45;2.35;;;;;;;-13.69;54.55;99127.59;4810607;29;20292;-87
2023/01/06 00:03:09;;;;;;;9.70;3.75;;;;;;;-13.94;54.75;99103.91;4802968;29;20043;-87
2023/01/06 00:05:35;;;;;;;11.73;3.53;;;;;;;-14.58;54.30;99021.41;4805892;29;20432;-87
2023/01/06 00:08:01;;;;;;;8.70;4.05;;;;;;;-14.00;54.00;99110.66;4794933;29;20152;-87
2023/01/06 00:10:54;;;;;;;6.83;2.40;;;;;;;-13.82;53.84;99143.84;4823725;29;20060;-88
2023/01/06 00:13:34;;;;;;;9.55;4.68;;;;;;;-14.55;54.11;99019.28;4823746;29;20050;-87
2023/01/06 00:16:09;;;;;;;6.43;3.10;;;;;;;-14.26;53.82;99086.28;4802712;29;20053;-88
2023/01/06 00:18:47;;;;;;;6.20;3.38;;;;;;;-14.49;53.81;99046.69;4803436;29;20086;-87
2023/01/06 00:21:41;;;;;;;9.18;3.13;;;;;;;-13.93;53.67;99159.91;4808036;29;20149;-87
2023/01/06 00:24:16;;;;;;;6.25;2.65;;;;;;;-14.01;53.46;99173.81;4794963;29;20086;-89
2023/01/06 00:26:42;;;;;;;8.43;3.25;;;;;;;-14.84;53.03;99102.78;4797510;29;20097;-88
2023/01/06 00:29:09;;;;;;;4.68;2.38;;;;;;;-14.93;52.75;99059.94;4797611;29;20042;-87
2023/01/06 00:31:38;;;;;;;;;;;;;;;-14.08;53.15;99180.69;4813198;29;20057;-86
2023/01/06 00:34:04;;;;;;;3.63;2.47;;;;;;;-14.84;53.31;99116.72;4794075;29;19925;-87
2023/01/06 00:36:30;;;;;;;8.30;2.90;;;;;;;-14.47;53.11;99147.91;4825018;29;20045;-87
2023/01/06 00:38:58;;;;;;;1.35;1.08;;;;;;;-14.61;53.62;99177.34;4812191;29;20034;-87
2023/01/06 00:44:10;;;;;;;6.00;2.90;;;;;;;-15.18;53.09;99072.13;4811422;29;20050;-87
2023/01/06 00:46:36;;;;;;;1.92;1.25;;;;;;;-14.84;52.75;99121.16;4809114;29;20053;-90
2023/01/06 00:49:03;;;;;;;3.13;0.88;;;;;;;-15.35;52.80;99073.00;4794530;29;20115;-87
2023/01/06 00:51:29;;;;;;;13.38;3.72;;;;;;;-15.01;53.06;99110.56;4779326;29;20050;-88
2023/01/06 00:53:58;;;;;;;8.60;4.27;;;;;;;-14.14;52.60;99225.97;4811820;29;20054;-87
2023/01/06 00:56:24;;;;;;;6.55;3.20;;;;;;;-14.51;51.71;99164.13;4819333;29;20834;-89
2023/01/06 00:58:50;;;;;;;3.22;1.20;;;;;;;-14.81;51.95;99157.56;4786409;29;20074;-87
2023/01/06 01:01:16;;;;;;;2.65;1.80;;;;;;;-14.62;52.63;99222.94;4805061;29;20046;-87
2023/01/06 01:03:42;;;;;;;12.85;2.60;;;;;;;-15.00;52.55;99145.47;4810164;29;20164;-87
2023/01/06 01:06:57;;;;;;;7.18;3.25;;;;;;;-14.47;52.18;99236.28;4790559;29;20533;-87
2023/01/06 01:09:26;;;;;;;3.47;1.73;;;;;;;-14.58;51.89;99233.97;4804342;29;20187;-88
2023/01/06 01:12:11;;;;;;;3.58;2.13;;;;;;;-15.10;52.26;99168.34;4795228;29;20066;-87
2023/01/06 01:14:39;;;;;;;7.63;2.80;;;;;;;-14.89;51.79;99223.09;4795991;29;20046;-88
2023/01/06 01:17:06;;;;;;;4.32;2.50;;;;;;;-15.27;52.04;99186.56;4810714;29;20088;-88
2023/01/06 01:19:33;;;;;;;6.93;3.45;;;;;;;-15.29;52.13;99188.53;4808971;29;20081;-87
2023/01/06 01:22:00;;;;;;;7.10;3.35;;;;;;;-15.12;52.40;99192.09;4791346;29;20053;-88
2023/01/06 01:24:26;;;;;;;1.85;1.23;;;;;;;-15.74;52.29;99138.84;4825237;29;20053;-86
2023/01/06 01:26:52;;;;;;;7.03;3.47;;;;;;;-15.07;52.04;99258.00;4810166;29;20046;-89
2023/01/06 01:29:19;;;;;;;6.07;2.88;;;;;;;-15.07;51.93;99263.25;4810089;29;20061;-86
2023/01/06 01:31:45;;;;;;;;;;;;;;;-15.04;52.35;99272.63;4792024;29;20075;-90
2023/01/06 01:34:13;;;;;;;12.73;2.45;;;;;;;-15.41;52.32;99208.88;4779467;29;19929;-90
2023/01/06 01:36:44;;;;;;;2.47;1.33;;;;;;;-14.98;51.89;99272.84;4792828;29;20057;-89
2023/01/06 01:39:11;;;;;;;7.78;2.75;;;;;;;-15.27;52.46;99238.16;4794029;29;20095;-90
2023/01/06 01:41:37;;;;;;;3.40;1.85;;;;;;;-15.09;51.90;99303.72;4806075;29;20086;-89
2023/01/06 01:44:42;;;;;;;5.15;2.13;;;;;;;-15.17;52.22;99302.63;4811477;29;20512;-90
2023/01/06 01:47:38;;;;;;;7.05;2.42;;;;;;;-15.25;51.82;99312.25;4796054;29;20051;-89
2023/01/06 01:50:30;;;;;;;8.05;3.20;;;;;;;-16.02;51.99;99221.84;4942623;24;20106;-88
2023/01/06 02:40:37;;;;;;;2.17;1.13;;;;;;;-16.25;51.53;99332.13;4837213;29;20046;-87
2023/01/06 03:14:47;;;;;;;6.00;1.58;;;;;;;-16.59;52.09;99390.13;4835974;29;20152;-88
2023/01/06 03:18:04;;;;;;;0.73;0.60;;;;;;;-16.42;51.47;99420.03;4821984;29;20073;-88
2023/01/06 03:21:24;;;;;;;2.95;2.00;;;;;;;-16.36;51.44;99426.47;4838983;29;20687;-89
2023/01/06 03:24:40;;;;;;;2.05;0.82;;;;;;;-16.33;51.44;99422.78;4806441;29;20050;-88
2023/01/06 03:27:07;;;;;;;3.47;2.35;;;;;;;-16.50;52.04;99385.03;4806320;29;20094;-87
2023/01/06 03:40:52;;;;;;;10.80;2.10;;;;;;;-16.66;51.28;99393.44;5369051;24;20021;-87
2023/01/06 03:50:54;;;;;;;5.05;2.25;;;;;;;-16.36;52.08;99442.19;4793636;29;20047;-86
2023/01/06 04:01:42;;;;;;;1.65;1.38;;;;;;;-16.73;51.42;99408.03;4810752;29;20065;-88
2023/01/06 04:09:35;;;;;;;0.60;0.60;;;;;;;-16.16;51.68;99484.88;4785090;30;20142;-88
2023/01/06 04:12:38;;;;;;;1.08;0.70;;;;;;;-16.21;51.86;99487.09;4763346;30;20062;-86
2023/01/06 04:19:18;;;;;;;2.03;1.13;;;;;;;-16.93;51.72;99423.72;4788291;29;20084;-87
2023/01/06 04:21:47;;;;;;;5.95;1.88;;;;;;;-16.52;51.43;99481.13;4795082;29;20054;-88
2023/01/06 04:24:13;;;;;;;4.57;1.98;;;;;;;-16.65;51.45;99448.25;4762337;30;20051;-88
2023/01/06 04:26:42;;;;;;;4.88;2.58;;;;;;;-16.26;51.22;99515.47;4776472;30;20055;-87
2023/01/06 04:36:54;;;;;;;2.67;1.30;;;;;;;-16.60;51.31;99480.03;4773690;30;20144;-89
2023/01/06 04:47:08;;;;;;;4.07;2.38;;;;;;;-16.52;51.37;99495.06;4757478;30;20140;-88
2023/01/06 04:49:34;;;;;;;3.38;1.98;;;;;;;-16.72;51.43;99485.50;4766952;30;20657;-88
2023/01/06 04:56:12;;;;;;;7.93;1.70;;;;;;;-16.86;51.20;99440.50;4775800;30;20115;-86
2023/01/06 04:58:39;;;;;;;6.60;2.23;;;;;;;-16.31;51.14;99515.88;4776093;30;20059;-89
2023/01/06 05:01:10;;;;;;;1.73;0.93;;;;;;;-16.20;51.19;99552.38;4763406;30;20052;-88
2023/01/06 05:03:37;;;;;;;3.03;1.55;;;;;;;-16.33;51.29;99553.59;4761668;30;20054;-88
2023/01/06 05:10:16;;;;;;;4.90;1.45;;;;;;;-17.27;51.29;99457.19;4813516;29;20057;-87
2023/01/06 05:12:42;;;;;;;4.90;2.13;;;;;;;-16.71;51.30;99553.38;4798208;29;20046;-88
2023/01/06 05:15:09;;;;;;;1.17;1.08;;;;;;;-16.72;51.99;99561.34;4782644;29;20051;-88
2023/01/06 05:17:37;;;;;;;3.08;2.35;;;;;;;-17.10;52.01;99537.56;4827009;29;20131;-88
2023/01/06 05:20:04;;;;;;;11.20;2.93;;;;;;;-17.22;52.47;99498.59;4796683;29;20035;-88
2023/01/06 05:22:30;;;;;;;2.05;1.55;;;;;;;-17.14;51.63;99538.81;4785360;29;20045;-88
2023/01/06 05:24:56;;;;;;;7.03;2.77;;;;;;;-17.01;51.94;99530.75;4820283;29;20043;-87
2023/01/06 05:27:22;;;;;;;1.00;0.85;;;;;;;-17.36;51.68;99478.88;4783768;29;20296;-88
2023/01/06 05:29:49;;;;;;;3.03;2.15;;;;;;;-16.79;52.24;99573.31;4795099;29;20129;-87
2023/01/06 05:50:05;;;;;;;1.30;0.90;;;;;;;-16.93;53.51;99626.81;4774061;30;20058;-85
2023/01/06 06:01:02;;;;;;;2.33;1.55;;;;;;;-17.79;53.64;99551.22;4760145;30;20063;-90
2023/01/06 06:03:32;;;;;;;1.63;0.98;;;;;;;-17.51;53.65;99623.81;4770357;30;20048;-87
2023/01/06 06:09:37;;;;;;;1.05;1.00;;;;;;;-17.04;53.03;99642.56;4789768;29;19929;-87
2023/01/06 06:19:05;;;;;;;2.53;1.45;;;;;;;-17.16;53.37;99653.06;4769638;30;20070;-87
2023/01/06 06:21:57;;;;;;;3.70;2.05;;;;;;;-16.85;53.22;99667.03;4790208;30;20051;-87
2023/01/06 06:24:26;;;;;;;1.95;1.17;;;;;;;-17.52;52.72;99577.75;4756858;30;20052;-87
2023/01/06 06:31:16;;;;;;;3.13;1.20;;;;;;;-16.46;52.07;99671.56;4754792;30;20151;-86
2023/01/06 06:33:43;;;;;;;1.50;1.00;;;;;;;-16.54;51.40;99681.88;4738439;30;20526;-87
2023/01/06 06:36:14;;;;;;;0.50;0.50;;;;;;;-16.91;52.14;99662.31;4753755;30;20149;-85
2023/01/06 06:38:45;;;;;;;2.67;1.35;;;;;;;-17.33;51.88;99617.06;4753643;30;20044;-87
2023/01/06 06:41:39;;;;;;;2.60;1.92;;;;;;;-16.66;52.51;99694.19;4751746;30;20063;-85
2023/01/06 06:44:08;;;;;;;8.05;3.08;;;;;;;-16.39;52.06;99702.34;4753596;30;20172;-86
2023/01/06 06:46:53;;;;;;;11.52;2.45;;;;;;;-16.52;51.66;99701.72;4742390;30;20490;-86
2023/01/06 06:53:47;;;;;;;4.10;1.97;;;;;;;-16.45;52.02;99702.88;4809985;29;20130;-85
2023/01/06 06:56:38;;;;;;;8.20;4.03;;;;;;;-16.32;51.93;99714.88;4792852;29;20539;-85
2023/01/06 06:59:04;;;;;;;3.17;2.00;;;;;;;-16.19;51.20;99716.34;4794827;29;20478;-85
2023/01/06 07:01:31;;;;;;;9.52;3.38;;;;;;;-16.39;51.43;99719.81;4789120;29;20631;-86
2023/01/06 07:04:37;;;;;;;11.77;4.47;;;;;;;-16.89;52.49;99644.69;4891702;24;20069;-85
2023/01/06 07:07:03;;;;;;;11.50;4.03;;;;;;;-16.28;52.09;99714.50;4778125;29;20042;-88
2023/01/06 07:10:26;;;;;;;14.30;3.35;;;;;;;-16.20;51.08;99724.31;4775394;30;20043;-88
2023/01/06 07:13:43;;;;;;;10.05;3.60;;;;;;;-16.10;51.59;99719.94;4799282;29;20047;-85
2023/01/06 07:16:09;;;;;;;2.67;1.48;;;;;;;-16.22;51.51;99726.22;4825431;29;20118;-87
2023/01/06 07:22:12;;;;;;;3.45;1.95;;;;;;;-16.63;50.83;99667.78;4821510;29;20031;-88
2023/01/06 07:24:39;;;;;;;13.68;4.18;;;;;;;-16.49;51.00;99667.44;4814401;29;20034;-86
2023/01/06 07:36:50;;;;;;;0.82;0.82;;;;;;;-16.75;49.95;99632.25;4814030;29;20050;-87
2023/01/06 07:39:39;;;;;;;2.13;1.55;;;;;;;-16.26;50.43;99714.34;4791282;29;20047;-90
2023/01/06 07:49:42;;;;;;;6.32;3.55;;;;;;;-16.11;49.88;99713.03;4735520;30;20067;-88
2023/01/06 07:52:09;;;;;;;9.70;3.63;;;;;;;-15.66;49.88;99780.72;4735325;30;20053;-87
2023/01/06 07:58:34;;;;;;;4.63;2.63;;;;;;;-15.65;49.74;99759.59;4739483;30;20106;-87
2023/01/06 08:01:05;;;;;;;8.30;3.45;;;;;;;-15.64;49.53;99778.75;4722120;30;20045;-86
2023/01/06 08:03:39;;;;;;;12.73;5.07;;;;;;;-15.75;49.22;99750.09;4713005;30;20060;-89
2023/01/06 08:06:09;;;;;;;13.07;5.53;;;;;;;-15.64;49.47;99803.16;4734168;30;20206;-88
2023/01/06 08:08:37;;;;;;;5.43;2.53;;;;;;;-16.36;50.07;99730.84;4709614;30;20048;-88
2023/01/06 08:14:33;;;;;;;10.98;3.20;;;;;;;-15.98;50.27;99820.16;4718554;30;20061;-88
2023/01/06 08:16:59;;;;;;;7.75;3.13;;;;;;;-16.82;51.07;99728.69;4723158;30;20048;-87
2023/01/06 08:19:27;;;;;;;13.02;3.47;;;;;;;-16.30;51.51;99781.84;4761555;30;20526;-85
2023/01/06 08:21:53;;;;;;;3.37;2.10;;;;;;;-16.29;50.96;99774.81;4773464;30;20525;-88
2023/01/06 08:24:20;;;;;;;4.97;2.80;;;;;;;-16.24;51.22;99823.19;4783367;30;20303;-87
2023/01/06 08:27:07;;;;;;;13.85;4.35;;;;;;;-16.03;51.35;99828.41;4790435;30;20111;-88
2023/01/06 08:29:33;;;;;;;11.18;2.55;;;;;;;-16.37;51.25;99786.75;4796800;29;20130;-89
2023/01/06 08:31:59;;;;;;;5.70;3.03;;;;;;;-16.43;51.37;99813.44;4779241;30;20567;-85
2023/01/06 08:38:04;;;;;;;6.80;3.50;;;;;;;-16.76;51.33;99704.63;4783554;30;20112;-86
2023/01/06 11:20:16;;;;;;;10.38;4.47;;;;;;;-13.28;49.13;99899.81;4828808;29;20061;-85
2023/01/06 11:27:46;;;;;;;8.48;3.88;;;;;;;-13.58;49.01;99914.06;4825900;29;20424;-87
2023/01/06 11:47:24;;;;;;;13.93;3.92;;;;;;;-13.20;48.55;99909.59;4809526;29;20101;-88
2023/01/06 11:51:07;;;;;;;7.22;3.47;;;;;;;-13.38;47.87;99900.84;4771137;24;20874;-86
2023/01/06 12:43:32;;;;;;;7.13;3.00;;;;;;;-15.32;52.50;99927.16;5581479;24;20185;-85
2023/01/06 13:14:15;;;;;;;9.50;4.07;;;;;;;-14.75;52.55;100005.19;4885770;24;20086;-88
2023/01/06 13:49:40;;;;;;;10.43;3.17;;;;;;;-15.13;52.64;100034.72;5475488;24;20548;-84
2023/01/06 13:52:29;;;;;;;7.82;3.95;;;;;;;-15.32;52.82;99971.72;4842841;24;20090;-85
2023/01/06 14:06:38;;;;;;;13.30;4.32;;;;;;;-15.36;53.93;100060.28;4850173;23;20061;-86
2023/01/06 14:12:25;;;;;;;9.27;3.70;;;;;;;-15.88;53.55;99944.13;4948606;24;20061;-86
2023/01/06 14:15:04;;;;;;;7.75;3.22;;;;;;;-15.50;53.32;100023.88;4822835;29;20053;-86
2023/01/06 14:28:40;;;;;;;13.13;4.45;;;;;;;-14.89;54.28;100036.22;5807367;23;20028;-86
2023/01/06 15:48:40;;;;;;;22.25;7.03;;;;;;;-14.89;50.17;100144.59;5211538;24;20057;-87
2023/01/06 15:52:06;;;;;;;4.35;2.65;;;;;;;-15.18;50.50;100152.28;5127376;24;20071;-88
2023/01/06 16:39:14;;;;;;;19.42;6.30;;;;;;;-16.07;52.50;100208.44;4826199;29;20039;-90
2023/01/06 16:42:38;;;;;;;10.27;4.60;;;;;;;-15.91;52.13;100206.28;4777976;29;20142;-86
2023/01/06 16:52:40;;;;;;;13.80;5.75;;;;;;;-15.83;51.60;100164.59;4840394;29;20097;-86
2023/01/06 16:55:33;;;;;;;13.40;5.50;;;;;;;-15.47;51.32;100209.72;4851406;29;20083;-85
2023/01/06 16:58:00;;;;;;;16.88;5.18;;;;;;;-16.14;50.14;100132.16;4852611;29;20045;-86
2023/01/06 17:00:28;;;;;;;10.15;4.00;;;;;;;-16.78;51.33;100100.59;4851102;29;20041;-88
2023/01/06 17:25:27;;;;;;;3.72;1.63;;;;;;;-15.50;49.85;100221.28;5075409;24;20063;-84
2023/01/06 17:34:13;;;;;;;20.33;5.35;;;;;;;-15.29;49.03;100246.72;4831027;29;20062;-85
2023/01/06 17:40:58;;;;;;;7.78;4.20;;;;;;;-16.45;49.37;100125.91;4817832;29;20111;-85
2023/01/06 17:43:37;;;;;;;7.00;3.25;;;;;;;-15.74;49.17;100212.81;4822342;29;20051;-86
2023/01/06 17:46:19;;;;;;;17.52;5.45;;;;;;;-15.64;49.62;100258.25;4800211;29;20038;-85
2023/01/06 17:48:49;;;;;;;13.70;5.07;;;;;;;-15.81;49.15;100227.34;4813511;29;20125;-87
2023/01/06 17:51:41;;;;;;;13.13;6.32;;;;;;;-15.51;49.33;100263.34;4807417;29;20130;-85
2023/01/06 18:15:39;;;;;;;7.43;4.60;;;;;;;-16.08;50.28;100275.69;4830198;29;20049;-82
2023/01/06 18:26:05;;;;;;;5.78;3.05;;;;;;;-16.18;49.56;100277.34;4811506;29;20049;-86
2023/01/06 18:28:34;;;;;;;7.93;3.95;;;;;;;-16.27;49.91;100264.97;4828980;29;20038;-84
2023/01/06 18:31:02;;;;;;;15.57;5.85;;;;;;;-16.22;49.64;100234.88;4834652;29;20038;-84
2023/01/06 19:28:22;;;;;;;14.93;6.40;;;;;;;-15.09;48.58;100314.13;4817564;24;20061;-85
2023/01/06 19:45:48;;;;;;;12.15;4.28;;;;;;;-15.78;49.84;100321.41;4825549;29;20055;-89
2023/01/06 19:48:23;;;;;;;11.57;5.22;;;;;;;-15.59;49.12;100331.25;4795786;29;20497;-87
2023/01/06 19:51:34;;;;;;;23.15;5.28;;;;;;;-15.64;49.39;100326.38;4827757;29;20057;-85
2023/01/06 19:54:40;;;;;;;16.88;6.55;;;;;;;-15.52;49.62;100327.22;4830184;29;20106;-85
2023/01/06 19:57:24;;;;;;;15.98;6.70;;;;;;;-15.84;48.86;100311.41;4817145;29;20043;-89
2023/01/06 19:59:52;;;;;;;23.45;6.60;;;;;;;-15.48;49.34;100344.34;4815536;29;20042;-85
2023/01/06 20:02:48;;;;;;;22.75;6.20;;;;;;;-15.94;48.93;100311.28;4821253;29;20106;-84
2023/01/06 20:05:27;;;;;;;17.85;7.47;;;;;;;-16.19;48.75;100294.00;4821773;29;20050;-85
2023/01/06 20:07:54;;;;;;;16.20;6.00;;;;;;;-16.43;50.32;100301.94;4821522;29;20064;-86
2023/01/06 20:11:10;;;;;;;15.23;5.60;;;;;;;-15.73;49.95;100345.44;4822670;29;20047;-87
2023/01/06 20:14:41;;;;;;;24.05;7.07;;;;;;;-15.49;48.95;100348.75;4816286;29;20131;-89
2023/01/06 20:17:10;;;;;;;9.23;3.90;;;;;;;-15.97;48.61;100275.69;4802741;29;20081;-86
2023/01/06 20:19:48;;;;;;;15.35;5.07;;;;;;;-15.78;48.68;100290.81;4823815;24;20052;-90
2023/01/06 20:25:41;;;;;;;9.75;3.70;;;;;;;-16.10;49.08;100290.69;4728111;30;20097;-86
2023/01/06 20:28:07;;;;;;;9.98;4.18;;;;;;;-16.05;49.06;100314.75;4718059;30;20053;-86
2023/01/06 20:30:33;;;;;;;10.97;2.67;;;;;;;-16.15;48.98;100317.22;4743879;30;20080;-87
2023/01/06 20:33:00;;;;;;;19.83;7.17;;;;;;;-15.83;49.47;100358.44;4778202;24;20323;-86
2023/01/06 20:35:27;;;;;;;;;;;;;;;-15.66;49.93;100342.22;4797330;29;20320;-86
2023/01/06 20:37:53;;;;;;;8.77;3.90;;;;;;;-16.29;49.10;100251.16;4796759;29;19936;-86
2023/01/06 20:44:32;;;;;;;6.13;3.07;;;;;;;-16.07;50.31;100361.16;5578420;24;20074;-86
2023/01/06 20:56:36;;;;;;;13.57;3.88;;;;;;;-15.93;48.91;100277.09;5437816;24;20112;-85
2023/01/06 21:55:10;;;;;;;7.70;3.90;;;;;;;-15.67;48.66;100324.00;4825712;29;20074;-86
2023/01/06 21:57:36;;;;;;;19.27;5.85;;;;;;;-15.81;48.67;100283.19;4917338;23;20054;-85
